Walnut, California
Current Conditions -  °F | °C
As of 6:44 AM on Monday 22 Dec 2014 (Local Time) from KCNO Reporting Station
Few Clouds Few Clouds  
Wind Chill: 43°   Ceiling: Unl
Heat Index: 43°   Visibility: 10mi
Dew Point: 42°   Wind: 3mph
Humidity: 97%   Direction: NA
Pressure: 30.06"   Gusts: NA
Location:  34.03°N, 117.84°W
Report Text: KCNO 221444Z VRB03KT 10SM FEW200 06/06 A3006 RMK AO2 T00610056 $
Loading
Personal Weather Stations






























Interactive Weather Map New forecast layout! Learn more

10-Day Weather Forecast

Advertisements
Track Severe Weather on mobile